Adventure of The Seas — C6SA3 — position and weather

sailwx.info

Track history (hours):
 
Tides and Currents Weather Stations Pressure Air Temp Water Temp Dewpoint Dewpoint Depression Visibility Wind Speed Wind Dir Waves Ship Positions

Adventure of The Seas

Operator: Royal Caribbean Cruises Ltd

Last reported at 2017-Nov-09 16:33 UTC. Time now 2017-Nov-18 14:19 UTC.
Position N 16°34' W 062°43'.
Warning: this ship's position is 8 days out of date.

Type: Passenger vessel. MMSI: 311263000.

Date/timePositionNaut miles runAvg speedWind from/ knotsBaromVisibWave heightAir tempDewpointWater temp
2017-Nov-09 16:33N 16°34' W 062°43'0 9.7
2017-Nov-09 16:30N 16°34' W 062°43'5 9.7
2017-Nov-09 16:00N 16°30' W 062°40'7 9.4
2017-Nov-09 15:14N 16°23' W 062°36'2 9.8
2017-Nov-09 15:00N 16°21' W 062°35'  
2017-Nov-07 07:46N 14°08' W 060°44'619.6
2017-Nov-07 07:29N 14°10' W 060°49'919.6
2017-Nov-07 07:00N 14°15' W 060°57'1019.4
2017-Nov-07 06:30N 14°21' W 061°06'1819.9
2017-Nov-07 05:37N 14°30' W 061°21'10920.0
2017-Nov-07 00:11N 16°10' W 062°05'420.6
2017-Nov-07 00:00N 16°14' W 062°05'1020.7
2017-Nov-06 23:30N 16°24' W 062°06'1121.4
2017-Nov-06 23:00N 16°35' W 062°04'1121.2
2017-Nov-06 22:31N 16°45' W 062°03'1121.3
2017-Nov-06 22:01N 16°56' W 062°02'918.0
2017-Nov-06 21:30N 17°05' W 062°00'611.6
2017-Nov-06 21:01N 17°10' W 061°58'612.6
2017-Nov-06 20:30N 17°08' W 061°52'  
2017-Nov-03 07:05N 14°43' W 061°32'116.0
2017-Nov-03 07:00N 14°42' W 061°31'815.5
2017-Nov-03 06:28N 14°36' W 061°25'715.3
2017-Nov-03 06:00N 14°32' W 061°19'815.2
2017-Nov-03 05:30N 14°27' W 061°13'714.8
2017-Nov-03 05:00N 14°23' W 061°07'714.7
2017-Nov-03 04:30N 14°19' W 061°01'815.5
2017-Nov-03 04:00N 14°14' W 060°55'915.1
2017-Nov-03 03:24N 14°08' W 060°47'  
2017-Oct-31 02:20N 16°12' W 062°05'413.5
2017-Oct-31 02:00N 16°16' W 062°05'713.2
2017-Oct-31 01:30N 16°23' W 062°06'713.3
2017-Oct-31 01:00N 16°29' W 062°05'713.5
2017-Oct-31 00:30N 16°36' W 062°04'713.3
2017-Oct-31 00:00N 16°43' W 062°03'713.2
2017-Oct-30 23:30N 16°49' W 062°03'713.2
2017-Oct-30 23:00N 16°56' W 062°02'713.2
2017-Oct-30 22:30N 17°02' W 062°01'612.3
2017-Oct-30 22:00N 17°08' W 061°59'611.5
2017-Oct-30 21:30N 17°08' W 061°53'2 4.9
2017-Oct-30 21:00N 17°07' W 061°51'0 0.0
2017-Oct-30 20:27N 17°07' W 061°51'0 0.0
2017-Oct-30 20:00N 17°07' W 061°51'0 0.0
2017-Oct-30 19:30N 17°07' W 061°51'0 0.0
2017-Oct-30 19:00N 17°07' W 061°51'0 0.0
2017-Oct-30 18:30N 17°07' W 061°51'0 0.0
2017-Oct-30 18:00N 17°07' W 061°51'0 0.0
2017-Oct-30 17:30N 17°07' W 061°51'0 0.0
2017-Oct-30 17:00N 17°07' W 061°51'  
Track history (hours):
 
Tides and Currents Weather Stations Pressure Air Temp Water Temp Dewpoint Dewpoint Depression Visibility Wind Speed Wind Dir Waves Ship Positions

Adventure of The Seas

Operator: Royal Caribbean Cruises Ltd

Last reported at 2017-Nov-09 16:33 UTC. Time now 2017-Nov-18 14:19 UTC.
Position N 16°34' W 062°43'.
Warning: this ship's position is 8 days out of date.

Type: Passenger vessel. MMSI: 311263000.

Date/timePositionNaut miles runAvg speedWind from/ knotsBaromVisibWave heightAir tempDewpointWater temp
2017-Nov-09 16:33N 16°34' W 062°43'0 9.7
2017-Nov-09 16:30N 16°34' W 062°43'5 9.7
2017-Nov-09 16:00N 16°30' W 062°40'7 9.4
2017-Nov-09 15:14N 16°23' W 062°36'2 9.8
2017-Nov-09 15:00N 16°21' W 062°35'  
2017-Nov-07 07:46N 14°08' W 060°44'619.6
2017-Nov-07 07:29N 14°10' W 060°49'919.6
2017-Nov-07 07:00N 14°15' W 060°57'1019.4
2017-Nov-07 06:30N 14°21' W 061°06'1819.9
2017-Nov-07 05:37N 14°30' W 061°21'10920.0
2017-Nov-07 00:11N 16°10' W 062°05'420.6
2017-Nov-07 00:00N 16°14' W 062°05'1020.7
2017-Nov-06 23:30N 16°24' W 062°06'1121.4
2017-Nov-06 23:00N 16°35' W 062°04'1121.2
2017-Nov-06 22:31N 16°45' W 062°03'1121.3
2017-Nov-06 22:01N 16°56' W 062°02'918.0
2017-Nov-06 21:30N 17°05' W 062°00'611.6
2017-Nov-06 21:01N 17°10' W 061°58'612.6
2017-Nov-06 20:30N 17°08' W 061°52'  
2017-Nov-03 07:05N 14°43' W 061°32'116.0
2017-Nov-03 07:00N 14°42' W 061°31'815.5
2017-Nov-03 06:28N 14°36' W 061°25'715.3
2017-Nov-03 06:00N 14°32' W 061°19'815.2
2017-Nov-03 05:30N 14°27' W 061°13'714.8
2017-Nov-03 05:00N 14°23' W 061°07'714.7
2017-Nov-03 04:30N 14°19' W 061°01'815.5
2017-Nov-03 04:00N 14°14' W 060°55'915.1
2017-Nov-03 03:24N 14°08' W 060°47'  
2017-Oct-31 02:20N 16°12' W 062°05'413.5
2017-Oct-31 02:00N 16°16' W 062°05'713.2
2017-Oct-31 01:30N 16°23' W 062°06'713.3
2017-Oct-31 01:00N 16°29' W 062°05'713.5
2017-Oct-31 00:30N 16°36' W 062°04'713.3
2017-Oct-31 00:00N 16°43' W 062°03'713.2
2017-Oct-30 23:30N 16°49' W 062°03'713.2
2017-Oct-30 23:00N 16°56' W 062°02'713.2
2017-Oct-30 22:30N 17°02' W 062°01'612.3
2017-Oct-30 22:00N 17°08' W 061°59'611.5
2017-Oct-30 21:30N 17°08' W 061°53'2 4.9
2017-Oct-30 21:00N 17°07' W 061°51'0 0.0
2017-Oct-30 20:27N 17°07' W 061°51'0 0.0
2017-Oct-30 20:00N 17°07' W 061°51'0 0.0
2017-Oct-30 19:30N 17°07' W 061°51'0 0.0
2017-Oct-30 19:00N 17°07' W 061°51'0 0.0
2017-Oct-30 18:30N 17°07' W 061°51'0 0.0
2017-Oct-30 18:00N 17°07' W 061°51'0 0.0
2017-Oct-30 17:30N 17°07' W 061°51'0 0.0
2017-Oct-30 17:00N 17°07' W 061°51'  

Dump ship's entire track history